Time;durP1;ratioP1;P1;durP2;ratioP2;P2;SDS_P1;SDS_P2;PMS_P1;PMS_P2;Temp;Humidity;BMP_temperature;BMP_pressure;BME280_temperature;BME280_humidity;BME280_pressure;Samples;Min_cycle;Max_cycle;Signal;HPM_P1;HPM_P2
2021/07/19 00:01:19;;;;;;;58.17;2.90;;;17.80;1.00;;;;;;5073557;28;20482;-72
2021/07/19 00:03:46;;;;;;;57.97;2.60;;;17.80;1.00;;;;;;5073117;28;20526;-73
2021/07/19 00:06:13;;;;;;;58.70;3.00;;;17.70;1.00;;;;;;5073460;28;20537;-72
2021/07/19 00:08:40;;;;;;;58.13;2.50;;;17.60;1.00;;;;;;5073257;28;20951;-73
2021/07/19 00:11:07;;;;;;;58.27;2.30;;;17.60;1.00;;;;;;5073167;28;20979;-73
2021/07/19 00:13:34;;;;;;;58.70;2.77;;;17.50;1.00;;;;;;5073063;28;20951;-73
2021/07/19 00:16:03;;;;;;;58.30;2.77;;;17.40;1.00;;;;;;5070633;28;20506;-73
2021/07/19 00:18:30;;;;;;;58.47;2.70;;;17.40;1.00;;;;;;5057059;28;20533;-73
2021/07/19 00:20:58;;;;;;;58.67;2.67;;;17.30;1.00;;;;;;5073015;28;20541;-73
2021/07/19 00:23:25;;;;;;;58.83;2.77;;;17.30;1.00;;;;;;5072665;28;20543;-73
2021/07/19 00:25:52;;;;;;;58.20;2.60;;;17.30;1.00;;;;;;5073193;28;20906;-73
2021/07/19 00:28:19;;;;;;;58.27;2.50;;;17.30;1.00;;;;;;5073077;28;20464;-73
2021/07/19 00:30:46;;;;;;;57.97;2.60;;;17.30;1.00;;;;;;5073204;28;20542;-73
2021/07/19 00:33:15;;;;;;;57.97;2.70;;;17.30;1.00;;;;;;5072459;28;20458;-73
2021/07/19 00:35:42;;;;;;;58.80;2.57;;;17.30;1.00;;;;;;5072605;28;20556;-73
2021/07/19 00:38:09;;;;;;;58.17;2.47;;;17.30;1.00;;;;;;5072872;28;20523;-73
2021/07/19 00:40:36;;;;;;;58.07;2.60;;;17.30;1.00;;;;;;5072828;28;20528;-73
2021/07/19 00:43:05;;;;;;;58.27;2.50;;;17.30;1.00;;;;;;5072499;28;20535;-72
2021/07/19 00:45:32;;;;;;;58.70;3.27;;;17.20;1.00;;;;;;5072437;28;20506;-72
2021/07/19 00:48:01;;;;;;;58.27;2.50;;;17.20;1.00;;;;;;5062364;28;20537;-72
2021/07/19 00:50:32;;;;;;;58.13;2.40;;;17.20;1.00;;;;;;5064059;28;20453;-73
2021/07/19 00:52:59;;;;;;;58.67;2.67;;;17.10;1.00;;;;;;5072128;28;20491;-73
2021/07/19 00:55:31;;;;;;;58.30;2.40;;;17.10;1.00;;;;;;5072569;28;20475;-73
2021/07/19 00:57:59;;;;;;;58.07;2.50;;;17.10;1.00;;;;;;5072254;28;20486;-73
2021/07/19 01:00:26;;;;;;;58.67;2.90;;;17.10;1.00;;;;;;5072213;28;20470;-73
2021/07/19 01:02:55;;;;;;;58.43;2.50;;;17.00;1.00;;;;;;5071696;28;20462;-73
2021/07/19 01:05:22;;;;;;;57.87;2.70;;;17.00;1.00;;;;;;5072412;28;20468;-73
2021/07/19 01:07:54;;;;;;;58.50;2.80;;;17.00;1.00;;;;;;5072415;28;20540;-73
2021/07/19 01:10:21;;;;;;;58.43;2.57;;;17.00;1.00;;;;;;5072339;28;20454;-73
2021/07/19 01:12:49;;;;;;;58.60;2.80;;;17.00;1.00;;;;;;5071874;28;20454;-73
2021/07/19 01:15:17;;;;;;;58.60;2.70;;;16.90;1.00;;;;;;5072033;28;20577;-73
2021/07/19 01:17:44;;;;;;;58.33;2.60;;;16.90;1.00;;;;;;5071998;28;20499;-73
2021/07/19 01:20:12;;;;;;;58.50;3.13;;;16.80;1.00;;;;;;5068380;28;20445;-73
2021/07/19 01:23:21;;;;;;;60.67;5.00;;;16.70;1.00;;;;;;5051853;28;20564;-73
2021/07/19 01:26:09;;;;;;;58.70;2.70;;;16.70;1.00;;;;;;5046744;28;20887;-74
2021/07/19 01:28:42;;;;;;;58.17;2.83;;;16.70;1.00;;;;;;5041483;28;21020;-73
2021/07/19 01:31:12;;;;;;;59.00;3.20;;;16.70;1.00;;;;;;5051852;28;20455;-73
2021/07/19 01:33:44;;;;;;;58.07;2.87;;;16.70;1.00;;;;;;5051745;28;20444;-73
2021/07/19 01:36:12;;;;;;;58.47;2.70;;;16.70;1.00;;;;;;5051677;28;20542;-73
2021/07/19 01:38:40;;;;;;;58.17;2.60;;;16.60;1.00;;;;;;5051982;28;20455;-73
2021/07/19 01:41:07;;;;;;;58.60;2.73;;;16.60;1.00;;;;;;5051865;28;20526;-73
2021/07/19 01:43:35;;;;;;;58.37;2.60;;;16.60;1.00;;;;;;5051398;28;20569;-73
2021/07/19 01:46:05;;;;;;;58.47;2.60;;;16.50;1.00;;;;;;5051646;28;20836;-73
2021/07/19 01:48:34;;;;;;;58.37;3.10;;;16.50;1.00;;;;;;5051998;28;20442;-73
2021/07/19 01:51:01;;;;;;;58.37;2.60;;;16.50;1.00;;;;;;5050662;28;20550;-74
2021/07/19 01:53:30;;;;;;;58.17;2.63;;;16.50;1.00;;;;;;5071439;28;20463;-74
2021/07/19 01:55:58;;;;;;;58.53;2.80;;;16.50;1.00;;;;;;5071451;28;20993;-73
2021/07/19 01:58:26;;;;;;;58.80;2.90;;;16.50;1.00;;;;;;5071654;28;21006;-73
2021/07/19 02:00:54;;;;;;;58.50;2.87;;;16.50;1.00;;;;;;5071549;28;20487;-73
2021/07/19 02:03:23;;;;;;;58.33;2.70;;;16.40;1.00;;;;;;5071013;28;20549;-73
2021/07/19 02:05:51;;;;;;;58.37;2.70;;;16.40;1.00;;;;;;5071522;28;20557;-73
2021/07/19 02:08:19;;;;;;;58.37;3.00;;;16.40;1.00;;;;;;5071582;28;21009;-73
2021/07/19 02:10:48;;;;;;;58.37;2.57;;;16.40;1.00;;;;;;5072671;28;20543;-73
2021/07/19 02:13:17;;;;;;;58.40;2.50;;;16.40;1.00;;;;;;5075458;28;20450;-73
2021/07/19 02:15:45;;;;;;;58.30;2.50;;;16.40;1.00;;;;;;5075278;28;20465;-71
2021/07/19 02:18:14;;;;;;;58.33;2.50;;;16.40;1.00;;;;;;5075396;28;21025;-72
2021/07/19 02:20:44;;;;;;;60.03;4.30;;;16.40;1.00;;;;;;5075548;28;20822;-72
2021/07/19 02:23:11;;;;;;;58.37;2.83;;;16.40;1.00;;;;;;5075385;28;20445;-73
2021/07/19 02:25:40;;;;;;;58.37;2.90;;;16.40;1.00;;;;;;5074213;28;20491;-72
2021/07/19 02:28:10;;;;;;;58.37;2.60;;;16.30;1.00;;;;;;5065680;28;20462;-72
2021/07/19 02:30:37;;;;;;;58.37;3.00;;;16.30;1.00;;;;;;5055101;28;20454;-72
2021/07/19 02:33:05;;;;;;;58.13;2.60;;;16.20;1.00;;;;;;5055221;28;20878;-72
2021/07/19 02:35:33;;;;;;;58.47;2.60;;;16.20;1.00;;;;;;5054983;28;20462;-72
2021/07/19 02:38:04;;;;;;;57.97;2.43;;;16.20;1.00;;;;;;5055194;28;20540;-72
2021/07/19 02:40:33;;;;;;;58.33;2.60;;;16.20;1.00;;;;;;5055060;28;20460;-72
2021/07/19 02:43:05;;;;;;;58.37;2.60;;;16.20;1.00;;;;;;5054514;28;20550;-72
2021/07/19 02:45:36;;;;;;;57.87;2.60;;;16.20;1.00;;;;;;5054906;28;20489;-72
2021/07/19 02:48:03;;;;;;;58.23;2.70;;;16.10;1.00;;;;;;5054970;28;20974;-72
2021/07/19 02:50:31;;;;;;;58.07;2.50;;;16.10;1.00;;;;;;5054983;28;20449;-72
2021/07/19 02:53:02;;;;;;;57.97;2.63;;;16.10;3.00;;;;;;5054647;28;20550;-72
2021/07/19 02:55:31;;;;;;;58.13;2.93;;;16.10;4.30;;;;;;5054485;28;20954;-72
2021/07/19 02:57:59;;;;;;;58.43;2.60;;;16.10;3.70;;;;;;5053939;28;20461;-72
2021/07/19 03:00:26;;;;;;;58.27;2.60;;;16.10;3.00;;;;;;5054822;28;20891;-72
2021/07/19 03:02:55;;;;;;;57.97;2.53;;;16.00;2.60;;;;;;5054035;28;20457;-72
2021/07/19 03:05:27;;;;;;;58.13;2.70;;;16.00;3.30;;;;;;5053338;28;20489;-72
2021/07/19 03:07:57;;;;;;;58.20;2.50;;;16.00;4.50;;;;;;5053285;28;20483;-72
2021/07/19 03:10:28;;;;;;;58.30;2.70;;;16.00;3.30;;;;;;5053563;28;20556;-72
2021/07/19 03:13:00;;;;;;;57.87;2.60;;;16.00;4.20;;;;;;5053145;28;20448;-72
2021/07/19 03:15:31;;;;;;;58.47;2.60;;;15.90;3.30;;;;;;5053265;28;20500;-72
2021/07/19 03:18:00;;;;;;;58.47;2.60;;;15.90;4.30;;;;;;5053303;28;21002;-72
2021/07/19 03:20:27;;;;;;;58.20;2.43;;;15.90;7.20;;;;;;5052938;28;20529;-72
2021/07/19 03:22:55;;;;;;;58.40;2.60;;;15.80;9.80;;;;;;5052658;28;20457;-72
2021/07/19 03:25:27;;;;;;;58.70;3.57;;;15.80;10.80;;;;;;5052907;28;20581;-72
2021/07/19 03:27:55;;;;;;;58.43;2.60;;;15.80;9.70;;;;;;5060911;28;20543;-72
2021/07/19 03:30:23;;;;;;;58.30;2.97;;;15.80;8.50;;;;;;5061434;28;20829;-72
2021/07/19 03:32:50;;;;;;;58.50;2.93;;;15.70;12.60;;;;;;5052516;28;20544;-73
2021/07/19 03:35:19;;;;;;;58.60;2.70;;;15.70;18.70;;;;;;5053242;28;20483;-71
2021/07/19 03:37:47;;;;;;;58.20;2.70;;;15.70;21.00;;;;;;5053005;28;20533;-71
2021/07/19 03:40:17;;;;;;;58.13;2.50;;;15.70;21.80;;;;;;5052937;28;21081;-71
2021/07/19 03:42:47;;;;;;;58.47;2.80;;;15.80;22.20;;;;;;5052587;28;20450;-71
2021/07/19 03:45:14;;;;;;;58.17;2.70;;;15.80;22.70;;;;;;5052510;28;20982;-71
2021/07/19 03:47:42;;;;;;;58.90;3.10;;;15.80;21.80;;;;;;5052569;28;20452;-72
2021/07/19 03:50:11;;;;;;;58.83;3.47;;;15.80;19.10;;;;;;5052623;28;20980;-72
2021/07/19 03:52:39;;;;;;;58.23;2.50;;;15.70;19.80;;;;;;5052523;28;20446;-72
2021/07/19 03:55:07;;;;;;;58.37;2.67;;;15.70;20.90;;;;;;5052509;28;20467;-72
2021/07/19 03:57:35;;;;;;;58.50;2.73;;;15.70;23.20;;;;;;5052416;28;20459;-72
2021/07/19 04:00:05;;;;;;;59.13;3.37;;;15.70;22.80;;;;;;5070204;28;20464;-72
2021/07/19 04:02:35;;;;;;;58.07;2.60;;;15.70;21.20;;;;;;5033357;28;1110963;-72
2021/07/19 04:05:05;;;;;;;58.27;2.60;;;15.70;22.50;;;;;;5073344;28;21003;-72
2021/07/19 04:07:35;;;;;;;58.17;2.90;;;15.70;21.30;;;;;;5073595;28;20450;-72
2021/07/19 04:10:06;;;;;;;58.70;2.80;;;15.60;20.60;;;;;;5073487;28;20534;-72
2021/07/19 04:12:33;;;;;;;58.17;2.63;;;15.60;24.00;;;;;;5072955;28;20487;-73
2021/07/19 04:15:00;;;;;;;59.73;3.00;;;15.60;25.40;;;;;;5073404;28;20466;-73
2021/07/19 04:17:28;;;;;;;58.07;2.57;;;15.60;26.00;;;;;;5073279;28;20539;-73
2021/07/19 04:19:56;;;;;;;58.17;2.60;;;15.70;28.20;;;;;;5073300;28;20441;-73
2021/07/19 04:22:24;;;;;;;64.10;4.90;;;15.70;27.50;;;;;;5072927;28;20444;-73
2021/07/19 04:24:51;;;;;;;58.27;2.50;;;15.70;27.90;;;;;;5072647;28;20494;-73
2021/07/19 04:27:19;;;;;;;58.23;2.50;;;15.80;26.80;;;;;;5073145;28;20536;-73
2021/07/19 04:29:49;;;;;;;58.27;2.80;;;15.80;27.70;;;;;;5071887;28;20460;-73
2021/07/19 04:32:20;;;;;;;58.50;2.70;;;15.80;27.70;;;;;;5060286;28;20930;-73
2021/07/19 04:34:49;;;;;;;58.23;2.60;;;15.80;28.20;;;;;;5052055;28;20990;-73
2021/07/19 04:37:16;;;;;;;58.27;2.50;;;15.70;29.70;;;;;;5052858;28;20460;-73
2021/07/19 04:39:43;;;;;;;58.00;2.60;;;15.70;29.30;;;;;;5052609;28;20459;-73
2021/07/19 04:42:10;;;;;;;58.37;2.70;;;15.70;33.20;;;;;;5052640;28;20541;-73
2021/07/19 04:44:37;;;;;;;58.10;2.43;;;15.70;38.80;;;;;;5052539;28;20495;-73
2021/07/19 04:47:05;;;;;;;58.33;2.70;;;15.80;43.20;;;;;;5052723;28;20481;-73
2021/07/19 04:49:32;;;;;;;58.20;2.60;;;15.80;45.30;;;;;;5052576;28;21049;-73
2021/07/19 04:52:01;;;;;;;58.60;2.70;;;15.90;46.50;;;;;;5052210;28;20519;-72
2021/07/19 04:54:32;;;;;;;58.40;2.50;;;15.90;46.30;;;;;;5052615;28;20564;-73
2021/07/19 04:57:02;;;;;;;58.10;2.50;;;16.00;46.80;;;;;;5052717;28;20512;-73
2021/07/19 04:59:33;;;;;;;57.97;2.70;;;16.00;47.10;;;;;;5052661;28;20497;-73
2021/07/19 05:02:01;;;;;;;58.43;2.90;;;16.10;48.00;;;;;;5051436;28;20489;-73
2021/07/19 05:04:29;;;;;;;58.33;2.40;;;16.20;47.70;;;;;;5052077;28;20566;-72
2021/07/19 05:06:57;;;;;;;58.37;2.80;;;16.30;49.60;;;;;;5052605;28;20581;-72
2021/07/19 05:09:27;;;;;;;58.40;2.83;;;16.40;45.10;;;;;;5052477;28;20455;-72
2021/07/19 05:11:56;;;;;;;57.67;2.50;;;16.50;42.70;;;;;;5052315;28;20494;-72
2021/07/19 05:14:23;;;;;;;58.80;2.77;;;16.70;40.30;;;;;;5052106;28;20550;-72
2021/07/19 05:16:50;;;;;;;58.30;2.40;;;16.80;36.80;;;;;;5052118;28;20540;-73
2021/07/19 05:19:17;;;;;;;57.77;2.50;;;16.90;32.00;;;;;;5052028;28;20489;-73
2021/07/19 05:21:44;;;;;;;57.80;2.60;;;16.90;27.30;;;;;;5052027;28;20537;-73
2021/07/19 05:24:11;;;;;;;58.27;2.73;;;17.00;24.30;;;;;;5052114;28;20899;-72
2021/07/19 05:26:40;;;;;;;58.70;3.43;;;17.10;20.60;;;;;;5052094;28;20572;-73
2021/07/19 05:29:07;;;;;;;58.60;2.80;;;17.10;18.80;;;;;;5052114;28;20533;-73
2021/07/19 05:31:36;;;;;;;58.20;2.90;;;17.10;16.20;;;;;;5056012;28;20457;-73
2021/07/19 05:34:03;;;;;;;58.50;3.00;;;17.20;14.20;;;;;;5071696;28;20486;-73
2021/07/19 05:36:31;;;;;;;58.30;2.60;;;17.30;11.30;;;;;;5072012;28;20441;-72
2021/07/19 05:38:58;;;;;;;58.70;3.47;;;17.30;9.30;;;;;;5071949;28;20450;-73
2021/07/19 05:41:25;;;;;;;58.17;2.80;;;17.30;8.20;;;;;;5071720;28;20450;-73
2021/07/19 05:43:53;;;;;;;58.20;2.50;;;17.40;7.20;;;;;;5071601;28;21000;-72
2021/07/19 05:46:20;;;;;;;57.97;2.47;;;17.40;8.50;;;;;;5071447;28;20485;-73
2021/07/19 05:48:47;;;;;;;58.07;2.40;;;17.30;8.90;;;;;;5071396;28;20541;-72
2021/07/19 05:51:14;;;;;;;57.77;2.67;;;17.40;9.10;;;;;;5071794;28;20540;-72
2021/07/19 05:53:41;;;;;;;58.57;2.70;;;17.30;10.20;;;;;;5071458;28;20493;-73
2021/07/19 05:56:09;;;;;;;57.77;2.70;;;17.40;9.90;;;;;;5071754;28;20533;-73
2021/07/19 05:58:36;;;;;;;57.83;2.47;;;17.40;9.30;;;;;;5071631;28;20450;-73
2021/07/19 06:01:04;;;;;;;57.93;2.80;;;17.40;8.80;;;;;;5071995;28;20545;-73
2021/07/19 06:03:31;;;;;;;58.40;2.60;;;17.40;8.50;;;;;;5070300;28;20494;-73
2021/07/19 06:05:58;;;;;;;58.03;2.60;;;17.50;9.30;;;;;;5063537;28;20569;-73
2021/07/19 06:08:25;;;;;;;58.50;2.90;;;17.50;10.60;;;;;;5051497;28;20491;-73
2021/07/19 06:10:51;;;;;;;58.60;2.73;;;17.50;12.20;;;;;;5051463;28;20534;-73
2021/07/19 06:13:18;;;;;;;58.33;3.27;;;17.60;12.30;;;;;;5051099;28;20486;-73
2021/07/19 06:15:45;;;;;;;58.80;2.90;;;17.60;13.00;;;;;;5051231;28;20467;-73
2021/07/19 06:18:14;;;;;;;58.20;2.57;;;17.60;12.30;;;;;;5051429;28;20486;-73
2021/07/19 06:20:40;;;;;;;58.13;3.20;;;17.70;11.60;;;;;;5051417;28;20454;-73
2021/07/19 06:23:07;;;;;;;57.70;2.40;;;17.80;16.30;;;;;;5051176;28;20538;-73
2021/07/19 06:25:36;;;;;;;58.33;2.87;;;17.80;15.60;;;;;;5051266;28;20491;-73
2021/07/19 06:28:05;;;;;;;58.23;2.50;;;17.90;15.20;;;;;;5051208;28;20908;-73
2021/07/19 06:30:32;;;;;;;60.50;3.50;;;18.00;12.90;;;;;;5051520;28;20451;-73
2021/07/19 06:32:59;;;;;;;58.20;2.73;;;18.00;13.20;;;;;;5051263;28;20533;-73
2021/07/19 06:35:28;;;;;;;58.03;2.40;;;18.10;11.70;;;;;;5062165;28;20466;-74
2021/07/19 06:37:55;;;;;;;57.63;2.50;;;18.10;8.60;;;;;;5071149;28;20534;-74
2021/07/19 06:40:22;;;;;;;64.00;2.80;;;18.20;3.90;;;;;;5071055;28;20888;-74
2021/07/19 06:42:49;;;;;;;58.10;2.50;;;18.20;1.00;;;;;;5071342;28;20553;-73
2021/07/19 06:45:17;;;;;;;58.07;2.40;;;18.30;1.00;;;;;;5071050;28;20487;-74
2021/07/19 06:47:44;;;;;;;58.00;2.60;;;18.30;1.00;;;;;;5071347;28;20460;-74
2021/07/19 06:50:13;;;;;;;58.20;2.50;;;18.40;1.00;;;;;;5071270;28;20491;-73
2021/07/19 06:52:42;;;;;;;57.83;2.83;;;18.50;1.00;;;;;;5070868;28;20535;-74
2021/07/19 06:55:10;;;;;;;57.93;2.73;;;18.60;1.00;;;;;;5071151;28;20546;-74
2021/07/19 06:57:37;;;;;;;57.87;2.40;;;18.70;1.00;;;;;;5073379;28;20464;-74
2021/07/19 07:00:06;;;;;;;57.97;2.37;;;18.80;1.00;;;;;;5074957;28;20621;-73
2021/07/19 07:02:33;;;;;;;58.80;2.90;;;18.90;1.00;;;;;;5074329;28;20443;-73
2021/07/19 07:05:00;;;;;;;58.13;2.43;;;19.00;1.00;;;;;;5073192;28;20982;-73
2021/07/19 07:07:27;;;;;;;58.60;2.80;;;19.10;1.00;;;;;;5074268;28;20939;-73
2021/07/19 07:09:55;;;;;;;58.97;3.00;;;19.20;1.00;;;;;;5074852;28;20530;-74
2021/07/19 07:12:22;;;;;;;57.90;2.70;;;19.30;1.00;;;;;;5074502;28;20755;-74
2021/07/19 07:14:49;;;;;;;58.60;2.80;;;19.40;1.00;;;;;;5074725;28;20463;-74
2021/07/19 07:17:16;;;;;;;58.30;3.10;;;19.50;1.00;;;;;;5074488;28;20534;-74
2021/07/19 07:19:44;;;;;;;58.33;2.47;;;19.60;1.00;;;;;;5074469;28;20542;-74
2021/07/19 07:22:10;;;;;;;57.73;2.70;;;19.70;1.00;;;;;;5073862;28;20457;-73
2021/07/19 07:24:40;;;;;;;58.10;2.50;;;19.80;1.00;;;;;;5074183;28;20548;-74
2021/07/19 07:27:09;;;;;;;58.40;2.70;;;19.90;1.00;;;;;;5074334;28;20566;-74
2021/07/19 07:29:36;;;;;;;58.37;2.73;;;19.90;1.00;;;;;;5074207;28;20939;-73
2021/07/19 07:32:04;;;;;;;57.97;2.37;;;20.00;1.00;;;;;;5073951;28;20535;-74
2021/07/19 07:34:30;;;;;;;58.17;2.60;;;20.10;1.00;;;;;;5074472;28;20500;-74
2021/07/19 07:36:57;;;;;;;58.07;2.60;;;20.20;1.00;;;;;;5072219;28;20529;-73
2021/07/19 07:39:24;;;;;;;57.80;2.80;;;20.30;1.00;;;;;;5061266;28;20504;-74
2021/07/19 07:41:51;;;;;;;58.17;2.67;;;20.30;1.00;;;;;;5053881;28;20456;-74
2021/07/19 07:44:20;;;;;;;58.10;2.90;;;20.40;1.00;;;;;;5053854;28;20556;-74
2021/07/19 07:46:48;;;;;;;58.80;2.80;;;20.50;1.00;;;;;;5053774;28;20833;-74
2021/07/19 07:49:15;;;;;;;58.27;2.60;;;20.60;1.00;;;;;;5053647;28;20458;-74
2021/07/19 07:51:42;;;;;;;58.27;2.70;;;20.60;1.00;;;;;;5053520;28;20447;-74
2021/07/19 07:54:09;;;;;;;58.57;2.80;;;20.70;1.00;;;;;;5053789;28;20501;-74
2021/07/19 07:56:36;;;;;;;58.30;2.80;;;20.80;1.00;;;;;;5053797;28;20540;-74
2021/07/19 07:59:03;;;;;;;58.60;3.00;;;20.90;1.00;;;;;;5053698;28;20455;-74
2021/07/19 08:01:32;;;;;;;58.27;2.57;;;21.00;1.00;;;;;;5053274;28;20538;-73
2021/07/19 08:03:58;;;;;;;57.97;2.80;;;21.20;1.00;;;;;;5053382;28;20513;-72
2021/07/19 08:06:25;;;;;;;58.77;2.90;;;21.30;1.00;;;;;;5053381;28;20491;-72
2021/07/19 08:08:52;;;;;;;58.40;2.60;;;21.40;1.00;;;;;;5051202;28;20542;-72
2021/07/19 08:11:19;;;;;;;58.07;2.40;;;21.40;1.00;;;;;;5053440;28;20531;-72
2021/07/19 08:13:46;;;;;;;58.30;3.03;;;21.60;1.00;;;;;;5053195;28;20493;-73
2021/07/19 08:16:13;;;;;;;57.93;2.33;;;21.60;1.00;;;;;;5053160;28;20455;-73
2021/07/19 08:18:41;;;;;;;58.50;2.50;;;21.70;1.00;;;;;;5053514;28;20909;-73
2021/07/19 08:21:08;;;;;;;57.67;2.50;;;21.90;1.00;;;;;;5053263;28;20527;-73
2021/07/19 08:23:35;;;;;;;57.93;2.50;;;22.00;1.00;;;;;;5053066;28;20479;-73
2021/07/19 08:26:02;;;;;;;58.50;2.70;;;22.10;1.00;;;;;;5053130;28;20530;-73
2021/07/19 08:28:29;;;;;;;58.20;2.40;;;22.20;1.00;;;;;;5053170;28;20871;-73
2021/07/19 08:30:56;;;;;;;58.10;2.80;;;22.30;1.00;;;;;;5052883;28;20458;-74
2021/07/19 08:33:23;;;;;;;57.83;2.40;;;22.40;1.00;;;;;;5052817;28;20483;-74
2021/07/19 08:35:51;;;;;;;58.07;2.50;;;22.50;1.00;;;;;;5052864;28;20500;-73
2021/07/19 08:38:18;;;;;;;58.33;2.67;;;22.60;1.00;;;;;;5057961;28;20530;-73
2021/07/19 08:40:46;;;;;;;57.77;2.20;;;22.80;1.00;;;;;;5063803;28;20539;-73
2021/07/19 08:43:13;;;;;;;58.30;2.80;;;22.90;1.00;;;;;;5052512;28;20456;-74
2021/07/19 08:45:40;;;;;;;57.67;2.40;;;23.00;1.00;;;;;;5052909;28;20559;-73
2021/07/19 08:48:07;;;;;;;57.67;2.40;;;23.10;1.00;;;;;;5052778;28;20488;-73
2021/07/19 08:50:34;;;;;;;58.60;3.40;;;23.20;1.00;;;;;;5052981;28;20539;-73
2021/07/19 08:53:03;;;;;;;58.10;2.70;;;23.30;1.00;;;;;;5052471;28;20537;-73
2021/07/19 08:55:31;;;;;;;58.50;3.00;;;23.40;1.00;;;;;;5052651;28;20559;-73
2021/07/19 08:58:00;;;;;;;58.07;2.60;;;23.40;1.00;;;;;;5052457;28;20487;-73
2021/07/19 09:00:27;;;;;;;57.97;2.50;;;23.50;1.00;;;;;;5052589;28;20928;-73
2021/07/19 09:02:54;;;;;;;58.30;2.80;;;23.70;1.00;;;;;;5052258;28;20548;-73
2021/07/19 09:05:21;;;;;;;58.13;2.60;;;23.80;1.00;;;;;;5052331;28;20489;-74
2021/07/19 09:07:50;;;;;;;58.37;2.70;;;23.90;1.00;;;;;;5052336;28;20511;-73
2021/07/19 09:10:25;;;;;;;57.90;2.33;;;24.10;1.00;;;;;;5066106;28;20508;-74
2021/07/19 09:12:52;;;;;;;58.50;3.03;;;24.20;1.00;;;;;;5071834;28;20539;-73
2021/07/19 09:15:31;;;;;;;58.07;2.30;;;24.30;1.00;;;;;;5072138;28;20475;-73
2021/07/19 09:17:59;;;;;;;58.27;2.67;;;24.40;1.00;;;;;;5072326;28;21007;-74
2021/07/19 09:20:30;;;;;;;57.80;2.70;;;24.50;1.00;;;;;;5071741;28;20863;-74
2021/07/19 09:22:57;;;;;;;59.50;3.30;;;24.60;1.00;;;;;;5071783;28;20535;-73
2021/07/19 09:25:26;;;;;;;58.43;2.57;;;24.70;1.00;;;;;;5071913;28;20503;-74
2021/07/19 09:27:58;;;;;;;58.40;2.67;;;24.90;1.00;;;;;;5071888;28;20570;-74
2021/07/19 09:30:27;;;;;;;58.03;2.73;;;25.00;1.00;;;;;;5072099;28;20477;-74
2021/07/19 09:32:58;;;;;;;58.30;3.10;;;25.10;1.00;;;;;;5071634;28;20955;-75
2021/07/19 09:35:26;;;;;;;57.93;2.40;;;25.30;1.00;;;;;;5071772;28;20876;-74
2021/07/19 09:37:54;;;;;;;58.30;2.50;;;25.50;1.00;;;;;;5072055;28;20533;-74
2021/07/19 09:40:27;;;;;;;59.00;2.97;;;25.70;1.00;;;;;;5070998;28;20491;-75
2021/07/19 09:42:55;;;;;;;59.17;3.00;;;25.90;1.00;;;;;;5059693;28;20474;-75
2021/07/19 09:45:29;;;;;;;57.80;2.30;;;26.10;1.00;;;;;;5051657;28;20481;-75
2021/07/19 09:48:04;;;;;;;58.00;2.30;;;26.20;1.00;;;;;;5051485;28;20575;-75
2021/07/19 09:50:41;;;;;;;58.17;2.60;;;26.30;1.00;;;;;;5051801;28;20481;-74
2021/07/19 09:53:08;;;;;;;58.50;3.23;;;26.40;1.00;;;;;;5051448;28;20545;-75
2021/07/19 09:55:36;;;;;;;57.97;2.33;;;26.60;1.00;;;;;;5051601;28;20471;-75
2021/07/19 09:58:04;;;;;;;58.20;3.00;;;26.70;1.00;;;;;;5051625;28;20547;-75
2021/07/19 10:00:32;;;;;;;57.80;2.40;;;26.90;1.00;;;;;;5051443;28;20565;-74
2021/07/19 10:03:09;;;;;;;58.67;2.40;;;27.20;1.00;;;;;;5051147;28;21042;-75
2021/07/19 10:05:36;;;;;;;57.90;2.20;;;27.40;1.00;;;;;;5051518;28;20473;-75
2021/07/19 10:08:04;;;;;;;60.47;2.63;;;27.30;1.00;;;;;;5051597;28;20503;-74
2021/07/19 10:10:36;;;;;;;58.80;2.67;;;27.20;1.00;;;;;;5050038;28;20536;-74
2021/07/19 10:13:05;;;;;;;58.00;2.40;;;27.00;1.00;;;;;;5056444;28;20974;-74
2021/07/19 10:15:33;;;;;;;58.57;2.43;;;27.10;1.00;;;;;;5071575;28;20482;-75
2021/07/19 10:18:03;;;;;;;58.27;2.50;;;27.30;1.00;;;;;;5071839;28;20545;-75
2021/07/19 10:20:30;;;;;;;58.00;2.40;;;27.30;1.00;;;;;;5071725;28;20521;-75
2021/07/19 10:22:57;;;;;;;57.90;2.30;;;27.20;1.00;;;;;;5071227;28;20529;-74
2021/07/19 10:25:37;;;;;;;57.83;2.30;;;27.10;1.00;;;;;;5071016;28;20467;-74
2021/07/19 10:28:12;;;;;;;58.70;2.97;;;27.20;1.00;;;;;;5071422;28;20515;-74
2021/07/19 10:30:41;;;;;;;58.00;2.30;;;28.30;1.00;;;;;;5070941;28;20454;-72
2021/07/19 10:33:08;;;;;;;58.70;3.53;;;29.80;1.00;;;;;;5074389;28;20548;-74
2021/07/19 10:35:35;;;;;;;57.77;2.40;;;31.30;1.00;;;;;;5075273;28;20828;-74
2021/07/19 10:38:08;;;;;;;58.10;2.40;;;32.30;1.00;;;;;;5074393;28;20538;-74
2021/07/19 10:40:38;;;;;;;57.57;2.60;;;32.40;1.00;;;;;;5056328;28;20455;-74
2021/07/19 10:43:08;;;;;;;57.60;2.37;;;33.10;1.00;;;;;;5054959;28;20815;-74
2021/07/19 10:45:43;;;;;;;57.40;2.20;;;34.10;1.00;;;;;;5055063;28;20475;-74
2021/07/19 10:48:10;;;;;;;57.27;1.90;;;35.00;1.00;;;;;;5054996;28;20483;-74
2021/07/19 10:50:39;;;;;;;57.50;2.27;;;36.00;1.00;;;;;;5054871;28;20487;-72
2021/07/19 10:53:17;;;;;;;57.60;2.30;;;36.80;1.00;;;;;;5054580;28;20535;-73
2021/07/19 10:55:44;;;;;;;57.07;2.07;;;37.40;1.00;;;;;;5054947;28;20550;-73
2021/07/19 10:58:18;;;;;;;57.50;2.20;;;38.10;1.00;;;;;;5054967;28;20521;-73
2021/07/19 11:00:47;;;;;;;57.27;2.20;;;37.60;1.00;;;;;;5054653;28;20455;-73
2021/07/19 11:03:16;;;;;;;57.40;2.20;;;36.40;1.00;;;;;;5054434;28;20551;-73
2021/07/19 11:05:45;;;;;;;57.70;2.77;;;35.50;1.00;;;;;;5054712;28;20466;-73
2021/07/19 11:08:22;;;;;;;57.60;2.27;;;35.90;1.00;;;;;;5053291;28;20488;-72
2021/07/19 11:10:50;;;;;;;57.50;2.67;;;36.80;1.00;;;;;;5054493;28;20452;-73
2021/07/19 11:13:32;;;;;;;57.40;2.60;;;37.60;1.00;;;;;;5054159;28;20448;-73
2021/07/19 11:15:59;;;;;;;56.90;1.87;;;38.30;1.00;;;;;;5054587;28;20848;-73
2021/07/19 11:18:28;;;;;;;56.80;2.17;;;38.90;1.00;;;;;;5054511;28;20450;-73
2021/07/19 11:20:58;;;;;;;56.97;2.20;;;39.50;1.00;;;;;;5054355;28;20543;-73
2021/07/19 11:23:29;;;;;;;57.30;2.83;;;40.00;1.00;;;;;;5054154;28;20448;-73
2021/07/19 11:25:58;;;;;;;56.87;2.10;;;40.40;1.00;;;;;;5054115;28;20479;-73
2021/07/19 11:28:28;;;;;;;56.93;2.10;;;40.60;1.00;;;;;;5054277;28;20574;-73
2021/07/19 11:31:05;;;;;;;57.30;2.43;;;40.90;1.00;;;;;;5054396;28;20514;-73
2021/07/19 11:33:37;;;;;;;56.57;1.90;;;41.20;1.00;;;;;;5054015;28;20917;-73
2021/07/19 11:36:16;;;;;;;56.70;2.07;;;40.10;1.00;;;;;;5053971;28;20880;-73
2021/07/19 11:38:43;;;;;;;56.97;2.20;;;38.40;1.00;;;;;;5058383;28;20923;-73
2021/07/19 11:41:18;;;;;;;56.77;1.90;;;36.90;1.00;;;;;;5073958;28;20538;-73
2021/07/19 11:43:48;;;;;;;57.10;2.50;;;37.30;1.00;;;;;;5073570;28;20439;-73
2021/07/19 11:46:24;;;;;;;56.70;2.10;;;37.90;1.00;;;;;;5073955;28;20454;-73
2021/07/19 11:48:53;;;;;;;56.93;2.20;;;38.50;1.00;;;;;;5073692;28;20449;-73
2021/07/19 11:51:21;;;;;;;57.07;2.50;;;38.80;1.00;;;;;;5073937;28;20538;-73
2021/07/19 11:53:48;;;;;;;56.87;2.13;;;38.10;1.00;;;;;;5073626;28;20455;-73
2021/07/19 11:56:15;;;;;;;57.20;1.90;;;38.40;1.00;;;;;;5073805;28;20884;-73
2021/07/19 11:58:43;;;;;;;56.93;2.10;;;38.10;1.00;;;;;;5073718;28;20527;-73
2021/07/19 12:01:12;;;;;;;57.27;2.30;;;37.80;1.00;;;;;;5073407;28;20470;-73
2021/07/19 12:03:38;;;;;;;57.17;2.10;;;36.80;1.00;;;;;;5073334;28;20894;-73
2021/07/19 12:06:05;;;;;;;57.00;2.23;;;35.70;1.00;;;;;;5073618;28;20546;-72
2021/07/19 12:08:35;;;;;;;57.03;2.23;;;35.30;1.00;;;;;;5073384;28;20489;-73
2021/07/19 12:11:04;;;;;;;57.30;2.23;;;36.10;1.00;;;;;;5072097;28;20554;-73
2021/07/19 12:13:38;;;;;;;57.00;2.00;;;37.30;1.00;;;;;;5053325;28;20452;-72
2021/07/19 12:16:05;;;;;;;57.20;2.23;;;38.60;1.00;;;;;;5053084;28;20548;-72
2021/07/19 12:18:35;;;;;;;56.73;1.90;;;39.70;1.00;;;;;;5053207;28;20446;-72
2021/07/19 12:21:04;;;;;;;56.60;2.00;;;40.20;1.00;;;;;;5053165;28;21015;-72
2021/07/19 12:23:39;;;;;;;57.37;2.47;;;40.80;1.00;;;;;;5053127;28;20527;-72
2021/07/19 12:26:06;;;;;;;56.00;2.07;;;41.30;1.00;;;;;;5053108;28;20496;-72
2021/07/19 12:28:33;;;;;;;57.40;2.20;;;41.70;1.00;;;;;;5052909;28;20480;-72
2021/07/19 12:31:15;;;;;;;56.47;2.03;;;42.10;1.00;;;;;;5053149;28;20444;-72
2021/07/19 12:33:44;;;;;;;56.77;1.87;;;42.30;1.00;;;;;;5053161;28;20531;-72
2021/07/19 12:36:11;;;;;;;56.80;2.00;;;42.30;1.00;;;;;;5052953;28;20983;-72
2021/07/19 12:38:38;;;;;;;56.70;1.80;;;42.00;1.00;;;;;;5052864;28;20535;-72
2021/07/19 12:41:10;;;;;;;55.83;2.20;;;42.20;1.00;;;;;;5051322;28;20461;-72
2021/07/19 12:43:37;;;;;;;56.97;1.90;;;42.60;1.00;;;;;;5065884;28;20447;-72
2021/07/19 12:46:04;;;;;;;56.80;1.90;;;42.70;1.00;;;;;;5072505;28;20979;-72
2021/07/19 12:48:31;;;;;;;56.40;2.30;;;42.90;1.00;;;;;;5072696;28;20475;-72
2021/07/19 12:51:04;;;;;;;56.80;2.27;;;43.20;1.00;;;;;;5072634;28;20931;-72
2021/07/19 12:53:35;;;;;;;55.90;1.80;;;43.50;1.00;;;;;;5072167;28;20529;-72